Dutch
Home     News     Corporate     Events & Tours     Flight ops     Crew centre      
My transavia virtual    Join us    Last logs    Who is flying    Software    Training    VRTS     
 

view flightdata
view flightplan
view OFP
view flightlog



flightdata:
pilot: John Akkermans
flight: TRA5004
from: EFHK (Helsinki Vantaa)
to: EHAM (Amsterdam Schiphol)
date: 10-06-2017
departure: 15:26z
arrival: 17:55z
duration: 2:29
aircraft: B737 (PHXRV)
distance: 840 NM
touchdown: -129 ft/m @ 153 KIAS



flightplan:
-(FPL-TRA5004-IS
-B737/M-SDE2E3FGHIJ1RWXY/LB1
-EFHK1517
-N0438F380 DCT NUNTO M6 NISIX DCT MISMA/N0443F400 N872 DEMIR UN872 EEL DCT
-EHAM0203 EHRD
-PBN/B1D1O1 DOF/170610 REG/PHXRV EET/ESAA0024 EKDK0108 EDVV0124 EHAA0142 SEL/LSHK CODE/484188 RVR/200 OPR/TRA RMK/TCAS PBN/B1D1O1 DOF/130911 REG/PHXRB SEL/GQBE CODE/4841A5 OPR/TRA RVR/200 RMK/TCAS)



operational flightplan (OFP):
DISPATCH BRIEFING
--------- --------- --------- --------- --------- --------- --------- --------- --------- ---------
PREDEPARTURE ATC CLEARANCE:
.

.
--------- --------- --------- --------- --------- --------- --------- --------- --------- ---------
OFP 1       10 JUN 17/15:02


TRA5004    C/S TRA5004  EFHK/HEL    EHAM/AMS            CRYZ SYS               CI 11
10 JUN 17  PH-XRV       2225/2235   0043/0038           GND DIST      822   
B737-700 CF  TAB:       CTOT ....  STA 00:50           AIR DIST      828
                                                       AVG W/C          0
MAXIMUM    ZFW 55202  LAW 55202   TOW 67800            AVG ISA       M08
ESTIMATED  ZFW 50914  LAW 53414   TOW 57926            F-F FACTOR    0.4
ACTUAL     ZFW......  LAW......   TOW.......

--------- --------- --------- --------- --------- --------- --------- --------- --------- ---------
TRIP        4512   0203           .....  .....
CONT         226   0007           .....  .....
ALTN         444   0010  EHRD     .....  .....  ....
FINAL        964   0030           .....  .....
ADDNL        866   0027           .....  .....
TANKERING                  
PLN TOF     6146   0250
DIFF        ....   ....
PLN TOF     ....   ....  (CORRECTED)   
EXTRA          0   ....                  
TOF         6146                    
TAXI         200                      
BLOCK       7212        

--------- --------- --------- --------- --------- --------- --------- --------- --------- ---------

REASON EXTRA FUEL     MATRIX FUEL: ...
O ECN-ECONOMICAL      O TMP-TEMPORARILY      O ATC-AIR TRAFFIC CONTROL
O FOB-FUEL ON BOARD   O MSC-MISCELLANEOUS    O FPC-FLIGHT PLN CORR
O WXR-WEATHER         O TEC_TECHNICAL        ACT.CI/CRZ USED: . . .

--------- --------- --------- --------- --------- --------- --------- --------- --------- ---------
                                                  00 MIN HOLD EHAM: 0 EXTRA


--------- --------- --------- --------- --------- --------- --------- --------- --------- ---------
COMMANDERS NAME:                                  SIGNATURE:

--------- --------- --------- --------- --------- --------- --------- --------- --------- ---------
FROM:   EFHK ELEV 180         TO: EHAM ELEV -11     ALTN: EHRD ELEV -14
ATC C/S      : C/S TRA5004                AVG ISA  : ...
CO-ROUTE     : ---                       AVG TT   :
FMC-RES      : 1408                      AVG W/C  : 0
CRZ ALT      : FL400
CRZ SYS      : CI 11


           EFHK/33  N0438F380 DCT NUNTO M6 NISIX DCT MISMA/N0443F400 N872 DEMIR UN872 EEL
DCT EHAM/18R

--------- --------- --------- --------- --------- --------- --------- --------- --------- ---------


RVSM ALT CHECK:  FL:...... LEFT: ...... STBY: ...... RIGHT: ......

--------- --------- --------- --------- --------- --------- --------- --------- --------- ---------
DESTINATION ALTERNATE EHRD
--------- --------- --------- --------- --------- --------- --------- --------- --------- ---------



--------- --------- --------- --------- --------- --------- --------- --------- --------- ---------
ALTERNATE SUMMARY
--------- --------- --------- --------- --------- --------- --------- --------- --------- ---------

     ALTN     DIST  LVL      WC    TIME   FUEL  VIA
     EHRD/24    29 FL040       0   0010    444  NV
INFO/EBBR/25L   98 FL160       0   0023    947  WOODY WODY7A
                                          P503
INFO/EHGG/23   107 FL170       0   0024    999  ANDIK UN873 GRONY GRON1G
                                          P555
INFO/EHBK/21   105 FL070       0   0026   1057  LOPIK V33 EHN P57 OSGOS OSGO1M
                                          P613


--------- --------- --------- --------- --------- --------- --------- --------- --------- ---------

-(FPL-TRA5004-IS
-B737/M-SDE2E3FGHIJ1RWXY/LB1
-EFHK1517
-N0438F380 DCT NUNTO M6 NISIX DCT MISMA/N0443F400 N872 DEMIR UN872 EEL DCT
-EHAM0203 EHRD
-PBN/B1D1O1 DOF/170610 REG/PHXRV EET/ESAA0024 EKDK0108 EDVV0124 EHAA0142 SEL/LSHK CODE/484188 RVR/200 OPR/TRA RMK/TCAS PBN/B1D1O1 DOF/130911 REG/PHXRB SEL/GQBE CODE/4841A5 OPR/TRA RVR/200 RMK/TCAS)

WEATHER BRIEFING - GENERATED 10 JUN 2017 15:02 UTC
--------------------------------------------------------------------------------

EFHK EHAM EHRD EBBR EHGG EHBK

--------------------------------------------------------------------------------
ORIGIN: EFHK (HELSINKI)
--------------------------------------------------------------------------------
EFHK 101450Z 16009KT 9999 SCT049 BKN080 19/10 Q1016 NOSIG

EFHK 101437Z 1015/1115 20008KT CAVOK=  EFJY 101437Z 1015/1115 27006KT CAVOK PROB30
      TEMPO 1100/1108 7000 -RA BKN013 OVC070
      TEMPO 1112/1115 7000 SHRA BKN035CB


--------------------------------------------------------------------------------
DESTINATION: EHAM (SCHIPHOL)
--------------------------------------------------------------------------------
EHAM 101455Z 19012KT 160V220 9999 FEW046 23/13 Q1018 NOSIG

EHAM 101101Z 1012/1118 21010KT CAVOK
      BECMG 1111/1114 25016KT PROB30
      TEMPO 1116/1118 7000 -RA -SHRA SCT030CB BKN040


--------------------------------------------------------------------------------
ALTERNATE: EHRD (ROTTERDAM)
--------------------------------------------------------------------------------
EHRD 101455Z AUTO 18011KT 150V230 9999 NCD 24/12 Q1018 NOSIG

EHRD 101101Z 1012/1118 21009KT CAVOK
      BECMG 1111/1114 25015KT PROB30
      TEMPO 1116/1118 7000 -RA -SHRA SCT030CB BKN040


--------------------------------------------------------------------------------
ALTERNATE: EBBR (BRUSSELS)
--------------------------------------------------------------------------------
EBBR 101450Z 21009KT 160V240 CAVOK 25/11 Q1019 NOSIG

EBBR 101110Z 1012/1118 20008KT CAVOK=  EDDF 101100Z 1012/1118 23006KT CAVOK
      BECMG 1018/1021 VRB03KT
      BECMG 1107/1110 18006KT


--------------------------------------------------------------------------------
ALTERNATE: EHGG (GRONINGEN)
--------------------------------------------------------------------------------
EHGG 101455Z AUTO 25010KT 220V290 9999 NSC 20/13 Q1019 NOSIG

EHGG 101053Z 1012/1118 22010KT 9999 SCT030
      BECMG 1016/1019 16006KT
      BECMG 1109/1112 21012KT
      BECMG 1115/1118 26013KT


--------------------------------------------------------------------------------
ALTERNATE: EHBK (MAASTRICHT)
--------------------------------------------------------------------------------
EHBK 101455Z AUTO VRB06KT 9999 NSC 25/11 Q1019 NOSIG

EHBK 101053Z 1012/1118 22007KT CAVOK






flightlog:
Pilot : John Akkermans
Flight: TRA5004
From  : EFHK Helsinki
To    : EHAM Schiphol

[FLIGHTLOG] 1.5.3
10-06-2017 15:04:17z, logging started
10-06-2017 15:17:36z, pos report: 008 KIAS, 00 186 ft, heading 137, winds 160 @ 09 kts
10-06-2017 15:26:24z, parking brake released
10-06-2017 15:28:21z, flaps set to 13%
10-06-2017 15:28:28z, flaps set to 25%
10-06-2017 15:29:55z, flaps set to 38%
10-06-2017 15:32:37z, pos report: 009 KIAS, 00 186 ft, heading 009, winds 125 @ 06 kts
10-06-2017 15:34:58z, take-off at 156 KIAS
10-06-2017 15:34:58z, pos report: 156 KIAS, 00 191 ft, heading 225, winds 134 @ 06 kts
10-06-2017 15:34:58z, flying online @ IVAO (TRA5004)
10-06-2017 15:34:58z, position: EFHK - Helsinki
10-06-2017 15:35:02z, retracted gear at 166 KIAS and 82 ft AGL
10-06-2017 15:35:05z, flaps set to 25%
10-06-2017 15:35:24z, flaps set to 13%
10-06-2017 15:36:14z, flaps set to 0%
10-06-2017 15:47:38z, pos report: 318 KIAS, 25 862 ft, heading 247, winds 262 @ 09 kts
10-06-2017 16:02:39z, pos report: 266 KIAS, 36 062 ft, heading 238, winds 250 @ 17 kts
10-06-2017 16:17:40z, pos report: 267 KIAS, 36 051 ft, heading 240, winds 302 @ 46 kts
10-06-2017 16:32:41z, pos report: 265 KIAS, 36 093 ft, heading 243, winds 315 @ 87 kts
10-06-2017 16:47:42z, pos report: 266 KIAS, 36 137 ft, heading 239, winds 313 @ 82 kts
10-06-2017 17:02:43z, pos report: 266 KIAS, 36 164 ft, heading 237, winds 302 @ 70 kts
10-06-2017 17:17:44z, pos report: 295 KIAS, 27 384 ft, heading 243, winds 291 @ 56 kts
10-06-2017 17:32:22z, deployed spoilers
10-06-2017 17:32:46z, pos report: 246 KIAS, 05 587 ft, heading 269, winds 228 @ 21 kts
10-06-2017 17:33:03z, flaps set to 13%
10-06-2017 17:33:12z, flaps set to 25%
10-06-2017 17:33:15z, flaps set to 38%
10-06-2017 17:33:21z, retracted spoilers
10-06-2017 17:33:39z, below glideslope
10-06-2017 17:34:32z, flaps set to 50%
10-06-2017 17:35:19z, intercepted localizer
10-06-2017 17:35:29z, flaps set to 62%
10-06-2017 17:35:37z, lowered gear at 177 KIAS and 2673 ft AGL
10-06-2017 17:35:48z, flaps set to 75%
10-06-2017 17:36:22z, flaps set to 87%
10-06-2017 17:37:16z, flaps set to 75%
10-06-2017 17:37:27z, on glideslope
10-06-2017 17:37:58z, flaps set to 87%
10-06-2017 17:39:50z, below glideslope
10-06-2017 17:40:14z, touchdown: -129ft/m at 153 KIAS
10-06-2017 17:40:14z, pos report: 153 KIAS, 00 014 ft, heading 185, winds 196 @ 12 kts
10-06-2017 17:40:14z, flying online @ IVAO (TRA5004)
10-06-2017 17:40:14z, position: EHAM - Schiphol
10-06-2017 17:40:16z, deployed spoilers
10-06-2017 17:40:42z, flaps set to 75%
10-06-2017 17:40:45z, flaps set to 62%
10-06-2017 17:40:48z, flaps set to 50%
10-06-2017 17:40:51z, flaps set to 38%
10-06-2017 17:40:55z, flaps set to 25%
10-06-2017 17:40:58z, flaps set to 13%
10-06-2017 17:41:07z, flaps set to 0%
10-06-2017 17:47:46z, pos report: 023 KIAS, 00 012 ft, heading 113, winds 189 @ 13 kts
10-06-2017 17:51:30z, retracted spoilers
10-06-2017 17:55:53z, parking brake set
10-06-2017 17:58:24z, logging ended

©2009-2021, transavia virtual. All rights reserved. This website is only meant for simulation purposes.
This website is not owned by transavia, nor is transavia responsible for the content of this website.